sensor_id;sensor_type;location;lat;lon;timestamp;pressure;altitude;pressure_sealevel;temperature;humidity
13235;BME280;6683;48.506;9.050;2023-02-18T00:00:49;99076.91;;;14.99;56.33
13235;BME280;6683;48.506;9.050;2023-02-18T00:03:52;99084.88;;;14.99;56.43
13235;BME280;6683;48.506;9.050;2023-02-18T00:06:55;99085.69;;;14.99;56.50
13235;BME280;6683;48.506;9.050;2023-02-18T00:09:57;99081.38;;;14.98;56.36
13235;BME280;6683;48.506;9.050;2023-02-18T00:13:01;99077.09;;;14.97;56.52
13235;BME280;6683;48.506;9.050;2023-02-18T00:16:06;99066.47;;;14.97;56.27
13235;BME280;6683;48.506;9.050;2023-02-18T00:19:13;99069.28;;;14.96;56.38
13235;BME280;6683;48.506;9.050;2023-02-18T00:22:15;99058.50;;;14.97;56.40
13235;BME280;6683;48.506;9.050;2023-02-18T00:25:18;99074.44;;;14.97;56.41
13235;BME280;6683;48.506;9.050;2023-02-18T00:28:22;99057.66;;;14.97;56.27
13235;BME280;6683;48.506;9.050;2023-02-18T00:31:25;99053.34;;;14.96;56.43
13235;BME280;6683;48.506;9.050;2023-02-18T00:34:28;99052.53;;;14.95;56.38
13235;BME280;6683;48.506;9.050;2023-02-18T00:37:30;99050.88;;;14.94;56.33
13235;BME280;6683;48.506;9.050;2023-02-18T00:40:36;99052.72;;;14.94;56.42
13235;BME280;6683;48.506;9.050;2023-02-18T00:43:40;99051.72;;;14.95;56.46
13235;BME280;6683;48.506;9.050;2023-02-18T00:46:42;99056.84;;;14.96;56.37
13235;BME280;6683;48.506;9.050;2023-02-18T00:49:47;99055.19;;;14.95;56.45
13235;BME280;6683;48.506;9.050;2023-02-18T00:52:50;99049.88;;;14.95;56.32
13235;BME280;6683;48.506;9.050;2023-02-18T00:55:52;99042.06;;;14.94;56.46
13235;BME280;6683;48.506;9.050;2023-02-18T00:58:56;99036.97;;;14.92;56.40
13235;BME280;6683;48.506;9.050;2023-02-18T01:01:58;99022.84;;;14.92;56.56
13235;BME280;6683;48.506;9.050;2023-02-18T01:05:00;99022.84;;;14.92;56.35
13235;BME280;6683;48.506;9.050;2023-02-18T01:08:03;99021.22;;;14.91;56.35
13235;BME280;6683;48.506;9.050;2023-02-18T01:11:07;99016.09;;;14.89;56.35
13235;BME280;6683;48.506;9.050;2023-02-18T01:14:11;99022.41;;;14.88;56.44
13235;BME280;6683;48.506;9.050;2023-02-18T01:17:14;99018.94;;;14.88;56.23
13235;BME280;6683;48.506;9.050;2023-02-18T01:20:18;99012.16;;;14.85;56.22
13235;BME280;6683;48.506;9.050;2023-02-18T01:23:21;99014.66;;;14.87;56.23
13235;BME280;6683;48.506;9.050;2023-02-18T01:26:24;99012.78;;;14.87;56.34
13235;BME280;6683;48.506;9.050;2023-02-18T01:29:27;99010.13;;;14.87;56.16
13235;BME280;6683;48.506;9.050;2023-02-18T01:32:30;99017.72;;;14.90;56.10
13235;BME280;6683;48.506;9.050;2023-02-18T01:35:33;99014.06;;;14.91;56.17
13235;BME280;6683;48.506;9.050;2023-02-18T01:38:35;99018.56;;;14.91;56.13
13235;BME280;6683;48.506;9.050;2023-02-18T01:41:38;99008.75;;;14.91;56.20
13235;BME280;6683;48.506;9.050;2023-02-18T01:44:43;99002.97;;;14.88;56.09
13235;BME280;6683;48.506;9.050;2023-02-18T01:47:45;99003.19;;;14.86;56.04
13235;BME280;6683;48.506;9.050;2023-02-18T01:50:50;99012.56;;;14.82;56.11
13235;BME280;6683;48.506;9.050;2023-02-18T01:53:57;99010.28;;;14.79;56.21
13235;BME280;6683;48.506;9.050;2023-02-18T01:57:05;99012.31;;;14.77;56.12
13235;BME280;6683;48.506;9.050;2023-02-18T02:00:14;99002.25;;;14.73;56.07
13235;BME280;6683;48.506;9.050;2023-02-18T02:03:21;98999.38;;;14.68;56.27
13235;BME280;6683;48.506;9.050;2023-02-18T02:06:24;99001.59;;;14.64;56.31
13235;BME280;6683;48.506;9.050;2023-02-18T02:09:29;99006.66;;;14.59;56.22
13235;BME280;6683;48.506;9.050;2023-02-18T02:12:46;99005.59;;;14.54;56.34
13235;BME280;6683;48.506;9.050;2023-02-18T02:16:01;98998.56;;;14.46;56.25
13235;BME280;6683;48.506;9.050;2023-02-18T02:19:33;98996.03;;;14.38;56.41
13235;BME280;6683;48.506;9.050;2023-02-18T02:23:48;98990.88;;;14.30;56.31
13235;BME280;6683;48.506;9.050;2023-02-18T02:27:18;98996.09;;;14.23;56.46
13235;BME280;6683;48.506;9.050;2023-02-18T02:31:06;98976.59;;;14.16;56.39
13235;BME280;6683;48.506;9.050;2023-02-18T02:34:37;98987.81;;;14.12;56.62
13235;BME280;6683;48.506;9.050;2023-02-18T02:37:50;98990.63;;;14.10;56.72
13235;BME280;6683;48.506;9.050;2023-02-18T02:41:03;98992.03;;;14.06;56.46
13235;BME280;6683;48.506;9.050;2023-02-18T02:44:18;98988.94;;;14.03;56.68
13235;BME280;6683;48.506;9.050;2023-02-18T02:47:31;98981.94;;;13.95;56.71
13235;BME280;6683;48.506;9.050;2023-02-18T02:50:43;98992.28;;;13.90;56.77
13235;BME280;6683;48.506;9.050;2023-02-18T02:53:46;98983.88;;;13.87;56.82
13235;BME280;6683;48.506;9.050;2023-02-18T02:56:49;98977.94;;;13.85;56.83
13235;BME280;6683;48.506;9.050;2023-02-18T02:59:57;98969.97;;;13.85;57.03
13235;BME280;6683;48.506;9.050;2023-02-18T03:03:18;98979.38;;;13.87;57.03
13235;BME280;6683;48.506;9.050;2023-02-18T03:06:56;98975.72;;;13.88;57.00
13235;BME280;6683;48.506;9.050;2023-02-18T03:10:20;98982.84;;;13.88;57.01
13235;BME280;6683;48.506;9.050;2023-02-18T03:13:41;98982.84;;;13.88;57.05
13235;BME280;6683;48.506;9.050;2023-02-18T03:16:50;98975.09;;;13.86;57.16
13235;BME280;6683;48.506;9.050;2023-02-18T03:20:02;98980.41;;;13.86;57.19
13235;BME280;6683;48.506;9.050;2023-02-18T03:23:14;98974.88;;;13.88;57.11
13235;BME280;6683;48.506;9.050;2023-02-18T03:26:20;98975.53;;;13.90;57.34
13235;BME280;6683;48.506;9.050;2023-02-18T03:29:24;98973.34;;;13.93;57.17
13235;BME280;6683;48.506;9.050;2023-02-18T03:32:29;98966.00;;;13.95;57.24
13235;BME280;6683;48.506;9.050;2023-02-18T03:35:33;98970.72;;;14.00;57.16
13235;BME280;6683;48.506;9.050;2023-02-18T03:38:43;98958.28;;;14.00;57.33
13235;BME280;6683;48.506;9.050;2023-02-18T03:41:47;98953.59;;;14.02;57.15
13235;BME280;6683;48.506;9.050;2023-02-18T03:44:50;98956.44;;;14.01;57.09
13235;BME280;6683;48.506;9.050;2023-02-18T03:47:52;98933.56;;;14.00;57.06
13235;BME280;6683;48.506;9.050;2023-02-18T03:50:55;98932.75;;;13.99;57.17
13235;BME280;6683;48.506;9.050;2023-02-18T03:53:59;98918.03;;;13.97;57.10
13235;BME280;6683;48.506;9.050;2023-02-18T03:57:01;98912.09;;;13.95;57.10
13235;BME280;6683;48.506;9.050;2023-02-18T04:00:05;98926.34;;;13.94;57.20
13235;BME280;6683;48.506;9.050;2023-02-18T04:03:07;98915.13;;;13.92;57.09
13235;BME280;6683;48.506;9.050;2023-02-18T04:06:10;98921.44;;;13.91;57.01
13235;BME280;6683;48.506;9.050;2023-02-18T04:09:13;98917.53;;;13.87;56.79
13235;BME280;6683;48.506;9.050;2023-02-18T04:12:16;98916.06;;;13.84;56.93
13235;BME280;6683;48.506;9.050;2023-02-18T04:15:18;98930.53;;;13.82;57.09
13235;BME280;6683;48.506;9.050;2023-02-18T04:18:20;98927.81;;;13.75;57.02
13235;BME280;6683;48.506;9.050;2023-02-18T04:21:23;98934.50;;;13.71;56.99
13235;BME280;6683;48.506;9.050;2023-02-18T04:24:26;98939.09;;;13.62;57.02
13235;BME280;6683;48.506;9.050;2023-02-18T04:27:29;98942.06;;;13.53;56.93
13235;BME280;6683;48.506;9.050;2023-02-18T04:30:31;98931.28;;;13.40;57.08
13235;BME280;6683;48.506;9.050;2023-02-18T04:33:34;98934.63;;;13.27;57.18
13235;BME280;6683;48.506;9.050;2023-02-18T04:36:36;98931.78;;;13.14;57.00
13235;BME280;6683;48.506;9.050;2023-02-18T04:39:40;98934.25;;;13.01;57.04
13235;BME280;6683;48.506;9.050;2023-02-18T04:42:42;98924.75;;;12.92;57.40
13235;BME280;6683;48.506;9.050;2023-02-18T04:45:44;98928.47;;;12.83;57.27
13235;BME280;6683;48.506;9.050;2023-02-18T04:48:47;98926.94;;;12.74;57.48
13235;BME280;6683;48.506;9.050;2023-02-18T04:51:49;98930.47;;;12.66;57.69
13235;BME280;6683;48.506;9.050;2023-02-18T04:54:53;98932.03;;;12.61;57.76
13235;BME280;6683;48.506;9.050;2023-02-18T04:57:55;98930.13;;;12.55;57.71
13235;BME280;6683;48.506;9.050;2023-02-18T05:00:58;98930.00;;;12.48;57.98
13235;BME280;6683;48.506;9.050;2023-02-18T05:04:00;98922.59;;;12.44;58.01
13235;BME280;6683;48.506;9.050;2023-02-18T05:07:03;98918.88;;;12.38;57.97
13235;BME280;6683;48.506;9.050;2023-02-18T05:10:09;98920.22;;;12.34;58.29
13235;BME280;6683;48.506;9.050;2023-02-18T05:13:11;98915.91;;;12.33;57.94
13235;BME280;6683;48.506;9.050;2023-02-18T05:16:14;98925.88;;;12.31;58.42
13235;BME280;6683;48.506;9.050;2023-02-18T05:19:16;98921.09;;;12.27;58.47
13235;BME280;6683;48.506;9.050;2023-02-18T05:22:19;98921.47;;;12.24;58.29
13235;BME280;6683;48.506;9.050;2023-02-18T05:25:22;98913.09;;;12.20;58.24
13235;BME280;6683;48.506;9.050;2023-02-18T05:28:25;98928.31;;;12.18;58.56
13235;BME280;6683;48.506;9.050;2023-02-18T05:31:27;98913.78;;;12.14;58.39
13235;BME280;6683;48.506;9.050;2023-02-18T05:34:29;98919.06;;;12.14;58.83
13235;BME280;6683;48.506;9.050;2023-02-18T05:37:32;98919.72;;;12.16;58.80
13235;BME280;6683;48.506;9.050;2023-02-18T05:40:36;98916.91;;;12.18;58.83
13235;BME280;6683;48.506;9.050;2023-02-18T05:43:38;98922.00;;;12.19;59.12
13235;BME280;6683;48.506;9.050;2023-02-18T05:46:55;98926.47;;;12.19;59.02
13235;BME280;6683;48.506;9.050;2023-02-18T05:49:57;98916.91;;;12.18;59.03
13235;BME280;6683;48.506;9.050;2023-02-18T05:52:59;98918.91;;;12.16;59.07
13235;BME280;6683;48.506;9.050;2023-02-18T05:56:05;98922.53;;;12.15;59.29
13235;BME280;6683;48.506;9.050;2023-02-18T05:59:08;98926.03;;;12.15;59.12
13235;BME280;6683;48.506;9.050;2023-02-18T06:02:10;98922.34;;;12.16;59.27
13235;BME280;6683;48.506;9.050;2023-02-18T06:05:12;98924.84;;;12.18;59.40
13235;BME280;6683;48.506;9.050;2023-02-18T06:08:15;98916.72;;;12.19;59.12
13235;BME280;6683;48.506;9.050;2023-02-18T06:11:19;98923.69;;;12.20;59.41
13235;BME280;6683;48.506;9.050;2023-02-18T06:14:21;98916.38;;;12.22;59.26
13235;BME280;6683;48.506;9.050;2023-02-18T06:17:24;98927.41;;;12.26;59.29
13235;BME280;6683;48.506;9.050;2023-02-18T06:20:27;98923.59;;;12.28;59.45
13235;BME280;6683;48.506;9.050;2023-02-18T06:23:29;98929.34;;;12.32;59.47
13235;BME280;6683;48.506;9.050;2023-02-18T06:26:32;98927.34;;;12.34;59.49
13235;BME280;6683;48.506;9.050;2023-02-18T06:29:35;98919.84;;;12.37;59.46
13235;BME280;6683;48.506;9.050;2023-02-18T06:32:37;98922.97;;;12.41;59.47
13235;BME280;6683;48.506;9.050;2023-02-18T06:35:40;98922.25;;;12.47;59.44
13235;BME280;6683;48.506;9.050;2023-02-18T06:38:44;98916.59;;;12.50;59.49
13235;BME280;6683;48.506;9.050;2023-02-18T06:41:47;98921.78;;;12.58;59.56
13235;BME280;6683;48.506;9.050;2023-02-18T06:44:49;98911.50;;;12.63;59.64
13235;BME280;6683;48.506;9.050;2023-02-18T06:47:51;98905.47;;;12.69;59.82
13235;BME280;6683;48.506;9.050;2023-02-18T06:50:54;98910.50;;;12.78;59.49
13235;BME280;6683;48.506;9.050;2023-02-18T06:53:56;98908.00;;;12.92;59.90
13235;BME280;6683;48.506;9.050;2023-02-18T06:57:00;98908.38;;;13.03;59.78
13235;BME280;6683;48.506;9.050;2023-02-18T07:00:03;98910.22;;;13.17;59.96
13235;BME280;6683;48.506;9.050;2023-02-18T07:03:06;98908.19;;;13.34;59.72
13235;BME280;6683;48.506;9.050;2023-02-18T07:06:08;98908.13;;;13.48;59.62
13235;BME280;6683;48.506;9.050;2023-02-18T07:09:11;98910.75;;;13.63;59.54
13235;BME280;6683;48.506;9.050;2023-02-18T07:12:15;98915.38;;;13.76;59.47
13235;BME280;6683;48.506;9.050;2023-02-18T07:15:17;98917.97;;;13.90;59.31
13235;BME280;6683;48.506;9.050;2023-02-18T07:18:23;98920.13;;;14.01;59.18
13235;BME280;6683;48.506;9.050;2023-02-18T07:21:26;98913.28;;;14.13;59.10
13235;BME280;6683;48.506;9.050;2023-02-18T07:24:28;98908.66;;;14.22;58.86
13235;BME280;6683;48.506;9.050;2023-02-18T07:27:32;98914.47;;;14.32;58.84
13235;BME280;6683;48.506;9.050;2023-02-18T07:30:34;98914.34;;;14.40;58.63
13235;BME280;6683;48.506;9.050;2023-02-18T07:33:37;98915.22;;;14.47;58.50
13235;BME280;6683;48.506;9.050;2023-02-18T07:36:39;98916.06;;;14.54;58.28
13235;BME280;6683;48.506;9.050;2023-02-18T07:39:42;98919.97;;;14.58;58.39
13235;BME280;6683;48.506;9.050;2023-02-18T07:42:47;98914.91;;;14.63;58.07
13235;BME280;6683;48.506;9.050;2023-02-18T07:45:49;98911.47;;;14.69;57.95
13235;BME280;6683;48.506;9.050;2023-02-18T07:48:51;98915.00;;;14.76;57.72
13235;BME280;6683;48.506;9.050;2023-02-18T07:51:53;98903.78;;;14.81;57.70
13235;BME280;6683;48.506;9.050;2023-02-18T07:54:56;98903.63;;;14.89;57.64
13235;BME280;6683;48.506;9.050;2023-02-18T07:58:00;98891.16;;;14.96;57.50
13235;BME280;6683;48.506;9.050;2023-02-18T08:01:04;98897.97;;;15.05;57.49
13235;BME280;6683;48.506;9.050;2023-02-18T08:04:07;98892.28;;;15.14;57.26
13235;BME280;6683;48.506;9.050;2023-02-18T08:07:12;98895.78;;;15.21;57.00
13235;BME280;6683;48.506;9.050;2023-02-18T08:10:15;98894.78;;;15.29;56.83
13235;BME280;6683;48.506;9.050;2023-02-18T08:13:18;98889.28;;;15.31;56.63
13235;BME280;6683;48.506;9.050;2023-02-18T08:16:21;98892.16;;;15.36;56.46
13235;BME280;6683;48.506;9.050;2023-02-18T08:19:24;98892.78;;;15.38;56.29
13235;BME280;6683;48.506;9.050;2023-02-18T08:22:26;98886.25;;;15.40;55.99
13235;BME280;6683;48.506;9.050;2023-02-18T08:25:28;98883.38;;;15.42;55.95
13235;BME280;6683;48.506;9.050;2023-02-18T08:28:32;98882.41;;;15.43;55.91
13235;BME280;6683;48.506;9.050;2023-02-18T08:31:34;98884.03;;;15.44;55.83
13235;BME280;6683;48.506;9.050;2023-02-18T08:34:36;98876.03;;;15.44;55.64
13235;BME280;6683;48.506;9.050;2023-02-18T08:37:39;98876.69;;;15.46;55.65
13235;BME280;6683;48.506;9.050;2023-02-18T08:40:41;98876.47;;;15.47;55.60
13235;BME280;6683;48.506;9.050;2023-02-18T08:43:46;98878.31;;;15.47;55.57
13235;BME280;6683;48.506;9.050;2023-02-18T08:46:49;98877.94;;;15.50;55.41
13235;BME280;6683;48.506;9.050;2023-02-18T08:49:52;98870.75;;;15.50;55.31
13235;BME280;6683;48.506;9.050;2023-02-18T08:52:55;98870.56;;;15.52;55.28
13235;BME280;6683;48.506;9.050;2023-02-18T08:56:00;98866.66;;;15.54;55.20
13235;BME280;6683;48.506;9.050;2023-02-18T08:59:03;98869.31;;;15.54;55.23
13235;BME280;6683;48.506;9.050;2023-02-18T09:02:06;98872.59;;;15.56;55.25
13235;BME280;6683;48.506;9.050;2023-02-18T09:05:08;98873.41;;;15.57;54.80
13235;BME280;6683;48.506;9.050;2023-02-18T09:08:10;98870.97;;;15.55;55.00
13235;BME280;6683;48.506;9.050;2023-02-18T09:11:13;98869.13;;;15.56;55.08
13235;BME280;6683;48.506;9.050;2023-02-18T09:14:17;98875.47;;;15.55;55.15
13235;BME280;6683;48.506;9.050;2023-02-18T09:17:19;98873.84;;;15.54;55.16
13235;BME280;6683;48.506;9.050;2023-02-18T09:20:22;98860.53;;;15.54;55.15
13235;BME280;6683;48.506;9.050;2023-02-18T09:23:24;98864.81;;;15.55;55.06
13235;BME280;6683;48.506;9.050;2023-02-18T09:26:27;98856.00;;;15.54;55.01
13235;BME280;6683;48.506;9.050;2023-02-18T09:29:32;98854.19;;;15.55;54.83
13235;BME280;6683;48.506;9.050;2023-02-18T09:32:35;98853.97;;;15.56;55.01
13235;BME280;6683;48.506;9.050;2023-02-18T09:35:39;98834.13;;;15.59;55.05
13235;BME280;6683;48.506;9.050;2023-02-18T09:38:42;98828.41;;;15.62;55.02
13235;BME280;6683;48.506;9.050;2023-02-18T09:41:46;98832.31;;;15.66;54.92
13235;BME280;6683;48.506;9.050;2023-02-18T09:44:53;98835.16;;;15.71;54.98
13235;BME280;6683;48.506;9.050;2023-02-18T09:48:04;98831.09;;;15.75;54.80
13235;BME280;6683;48.506;9.050;2023-02-18T09:51:16;98825.75;;;15.81;54.95
13235;BME280;6683;48.506;9.050;2023-02-18T09:54:19;98820.84;;;15.85;54.96
13235;BME280;6683;48.506;9.050;2023-02-18T09:57:26;98823.69;;;15.90;54.74
13235;BME280;6683;48.506;9.050;2023-02-18T10:00:35;98810.81;;;15.93;54.79
13235;BME280;6683;48.506;9.050;2023-02-18T10:03:38;98812.44;;;16.01;54.59
13235;BME280;6683;48.506;9.050;2023-02-18T10:06:44;98815.31;;;16.06;54.53
13235;BME280;6683;48.506;9.050;2023-02-18T10:09:48;98806.91;;;16.16;54.40
13235;BME280;6683;48.506;9.050;2023-02-18T10:12:52;98807.50;;;16.24;54.16
13235;BME280;6683;48.506;9.050;2023-02-18T10:15:56;98806.66;;;16.30;54.38
13235;BME280;6683;48.506;9.050;2023-02-18T10:19:03;98814.66;;;16.37;54.16
13235;BME280;6683;48.506;9.050;2023-02-18T10:22:09;98815.44;;;16.44;54.00
13235;BME280;6683;48.506;9.050;2023-02-18T10:25:19;98819.16;;;16.49;53.59
13235;BME280;6683;48.506;9.050;2023-02-18T10:28:23;98825.28;;;16.56;53.79
13235;BME280;6683;48.506;9.050;2023-02-18T10:31:32;98822.22;;;16.59;53.62
13235;BME280;6683;48.506;9.050;2023-02-18T10:34:40;98817.50;;;16.61;53.17
13235;BME280;6683;48.506;9.050;2023-02-18T10:38:00;98818.53;;;16.60;53.35
13235;BME280;6683;48.506;9.050;2023-02-18T10:41:12;98809.28;;;16.63;52.98
13235;BME280;6683;48.506;9.050;2023-02-18T10:44:25;98811.94;;;16.63;53.13
13235;BME280;6683;48.506;9.050;2023-02-18T10:47:38;98807.22;;;16.65;53.18
13235;BME280;6683;48.506;9.050;2023-02-18T10:50:45;98806.81;;;16.68;53.01
13235;BME280;6683;48.506;9.050;2023-02-18T10:53:51;98816.44;;;16.69;52.95
13235;BME280;6683;48.506;9.050;2023-02-18T10:56:59;98816.84;;;16.72;52.95
13235;BME280;6683;48.506;9.050;2023-02-18T11:00:22;98826.47;;;16.73;52.98
13235;BME280;6683;48.506;9.050;2023-02-18T11:03:40;98826.69;;;16.72;52.64
13235;BME280;6683;48.506;9.050;2023-02-18T11:06:45;98829.13;;;16.73;52.46
13235;BME280;6683;48.506;9.050;2023-02-18T11:09:49;98818.28;;;16.75;52.61
13235;BME280;6683;48.506;9.050;2023-02-18T11:12:57;98815.41;;;16.76;52.47
13235;BME280;6683;48.506;9.050;2023-02-18T11:16:05;98811.50;;;16.79;52.38
13235;BME280;6683;48.506;9.050;2023-02-18T11:19:32;98808.19;;;16.84;52.26
13235;BME280;6683;48.506;9.050;2023-02-18T11:22:35;98795.25;;;16.87;52.25
13235;BME280;6683;48.506;9.050;2023-02-18T11:25:40;98798.31;;;16.91;51.98
13235;BME280;6683;48.506;9.050;2023-02-18T11:28:49;98782.09;;;16.92;52.06
13235;BME280;6683;48.506;9.050;2023-02-18T11:31:55;98781.69;;;16.95;51.77
13235;BME280;6683;48.506;9.050;2023-02-18T11:35:00;98771.84;;;16.96;51.77
13235;BME280;6683;48.506;9.050;2023-02-18T11:38:17;98765.25;;;16.98;51.74
13235;BME280;6683;48.506;9.050;2023-02-18T11:41:33;98773.66;;;17.02;51.67
13235;BME280;6683;48.506;9.050;2023-02-18T11:44:39;98773.44;;;17.03;51.59
13235;BME280;6683;48.506;9.050;2023-02-18T11:47:42;98775.28;;;17.03;51.32
13235;BME280;6683;48.506;9.050;2023-02-18T11:50:50;98770.56;;;16.98;51.20
13235;BME280;6683;48.506;9.050;2023-02-18T11:53:58;98759.31;;;16.96;51.21
13235;BME280;6683;48.506;9.050;2023-02-18T11:57:04;98756.84;;;16.95;51.23
13235;BME280;6683;48.506;9.050;2023-02-18T12:00:22;98751.13;;;16.91;51.05
13235;BME280;6683;48.506;9.050;2023-02-18T12:03:32;98745.38;;;16.88;51.24
13235;BME280;6683;48.506;9.050;2023-02-18T12:06:47;98745.84;;;16.85;50.94
13235;BME280;6683;48.506;9.050;2023-02-18T12:09:55;98739.06;;;16.82;51.00
13235;BME280;6683;48.506;9.050;2023-02-18T12:13:04;98729.44;;;16.81;51.21
13235;BME280;6683;48.506;9.050;2023-02-18T12:16:16;98732.13;;;16.81;50.88
13235;BME280;6683;48.506;9.050;2023-02-18T12:19:40;98726.56;;;16.83;50.99
13235;BME280;6683;48.506;9.050;2023-02-18T12:22:56;98734.13;;;16.86;50.89
13235;BME280;6683;48.506;9.050;2023-02-18T12:26:07;98736.97;;;16.91;50.58
13235;BME280;6683;48.506;9.050;2023-02-18T12:29:37;98732.84;;;16.95;50.79
13235;BME280;6683;48.506;9.050;2023-02-18T12:32:48;98736.50;;;17.00;50.44
13235;BME280;6683;48.506;9.050;2023-02-18T12:36:08;98731.13;;;17.07;50.50
13235;BME280;6683;48.506;9.050;2023-02-18T12:39:26;98737.91;;;17.09;50.37
13235;BME280;6683;48.506;9.050;2023-02-18T12:42:47;98726.81;;;17.12;50.27
13235;BME280;6683;48.506;9.050;2023-02-18T12:46:18;98723.47;;;17.17;50.31
13235;BME280;6683;48.506;9.050;2023-02-18T12:50:20;98720.19;;;17.15;50.05
13235;BME280;6683;48.506;9.050;2023-02-18T12:54:01;98724.13;;;17.12;50.05
13235;BME280;6683;48.506;9.050;2023-02-18T12:57:32;98725.97;;;17.12;49.89
13235;BME280;6683;48.506;9.050;2023-02-18T13:04:38;98713.06;;;17.09;49.64
13235;BME280;6683;48.506;9.050;2023-02-18T13:07:54;98710.41;;;17.09;49.76
13235;BME280;6683;48.506;9.050;2023-02-18T13:11:09;98711.44;;;17.08;49.39
13235;BME280;6683;48.506;9.050;2023-02-18T13:14:19;98709.78;;;17.07;49.57
13235;BME280;6683;48.506;9.050;2023-02-18T13:17:24;98696.88;;;17.10;49.36
13235;BME280;6683;48.506;9.050;2023-02-18T13:20:36;98697.25;;;17.14;49.89
13235;BME280;6683;48.506;9.050;2023-02-18T13:23:48;98684.50;;;17.16;49.29
13235;BME280;6683;48.506;9.050;2023-02-18T13:26:59;98677.91;;;17.18;48.98
13235;BME280;6683;48.506;9.050;2023-02-18T13:30:19;98676.47;;;17.22;49.07
13235;BME280;6683;48.506;9.050;2023-02-18T13:33:31;98683.41;;;17.23;49.09
13235;BME280;6683;48.506;9.050;2023-02-18T13:36:56;98683.22;;;17.25;48.92
13235;BME280;6683;48.506;9.050;2023-02-18T13:40:02;98670.47;;;17.27;48.96
13235;BME280;6683;48.506;9.050;2023-02-18T13:43:20;98679.28;;;17.27;48.62
13235;BME280;6683;48.506;9.050;2023-02-18T13:46:46;98682.34;;;17.31;48.73
13235;BME280;6683;48.506;9.050;2023-02-18T13:49:49;98676.34;;;17.35;48.69
13235;BME280;6683;48.506;9.050;2023-02-18T13:53:21;98676.72;;;17.39;48.44
13235;BME280;6683;48.506;9.050;2023-02-18T13:56:28;98673.41;;;17.43;48.29
13235;BME280;6683;48.506;9.050;2023-02-18T13:59:34;98675.44;;;17.48;48.37
13235;BME280;6683;48.506;9.050;2023-02-18T14:02:56;98673.41;;;17.50;48.10
13235;BME280;6683;48.506;9.050;2023-02-18T14:05:59;98672.13;;;17.52;47.93
13235;BME280;6683;48.506;9.050;2023-02-18T14:12:38;98668.84;;;17.50;47.94
13235;BME280;6683;48.506;9.050;2023-02-18T14:15:58;98669.03;;;17.49;47.87
13235;BME280;6683;48.506;9.050;2023-02-18T14:19:03;98672.75;;;17.48;47.68
13235;BME280;6683;48.506;9.050;2023-02-18T14:22:27;98669.28;;;17.47;47.92
13235;BME280;6683;48.506;9.050;2023-02-18T14:25:37;98668.44;;;17.47;47.94
13235;BME280;6683;48.506;9.050;2023-02-18T14:28:43;98668.44;;;17.47;47.79
13235;BME280;6683;48.506;9.050;2023-02-18T14:31:53;98680.34;;;17.51;47.53
13235;BME280;6683;48.506;9.050;2023-02-18T14:35:24;98670.28;;;17.53;47.71
13235;BME280;6683;48.506;9.050;2023-02-18T14:38:36;98673.13;;;17.58;47.40
13235;BME280;6683;48.506;9.050;2023-02-18T14:41:50;98662.22;;;17.60;47.35
13235;BME280;6683;48.506;9.050;2023-02-18T14:45:18;98656.44;;;17.63;47.28
13235;BME280;6683;48.506;9.050;2023-02-18T14:52:02;98668.91;;;17.69;47.12
13235;BME280;6683;48.506;9.050;2023-02-18T14:55:10;98653.69;;;17.69;47.07
13235;BME280;6683;48.506;9.050;2023-02-18T14:58:27;98663.34;;;17.70;47.34
13235;BME280;6683;48.506;9.050;2023-02-18T15:01:33;98655.34;;;17.70;47.48
13235;BME280;6683;48.506;9.050;2023-02-18T15:04:35;98654.72;;;17.68;47.44
13235;BME280;6683;48.506;9.050;2023-02-18T15:07:39;98644.47;;;17.65;47.58
13235;BME280;6683;48.506;9.050;2023-02-18T15:10:45;98647.59;;;17.62;47.62
13235;BME280;6683;48.506;9.050;2023-02-18T15:13:49;98637.34;;;17.59;47.56
13235;BME280;6683;48.506;9.050;2023-02-18T15:16:52;98645.00;;;17.55;47.33
13235;BME280;6683;48.506;9.050;2023-02-18T15:19:57;98644.63;;;17.52;47.41
13235;BME280;6683;48.506;9.050;2023-02-18T15:23:02;98636.41;;;17.47;47.62
13235;BME280;6683;48.506;9.050;2023-02-18T15:26:06;98645.44;;;17.46;47.76
13235;BME280;6683;48.506;9.050;2023-02-18T15:29:17;98640.78;;;17.41;47.43
13235;BME280;6683;48.506;9.050;2023-02-18T15:32:22;98646.13;;;17.41;47.50
13235;BME280;6683;48.506;9.050;2023-02-18T15:35:29;98640.78;;;17.41;47.34
13235;BME280;6683;48.506;9.050;2023-02-18T15:38:34;98647.16;;;17.40;47.44
13235;BME280;6683;48.506;9.050;2023-02-18T15:41:41;98646.91;;;17.42;47.52
13235;BME280;6683;48.506;9.050;2023-02-18T15:44:46;98658.88;;;17.39;47.11
13235;BME280;6683;48.506;9.050;2023-02-18T15:47:52;98648.41;;;17.38;47.25
13235;BME280;6683;48.506;9.050;2023-02-18T15:51:00;98650.47;;;17.36;46.93
13235;BME280;6683;48.506;9.050;2023-02-18T15:54:05;98641.28;;;17.32;46.91
13235;BME280;6683;48.506;9.050;2023-02-18T15:57:12;98638.44;;;17.27;47.01
13235;BME280;6683;48.506;9.050;2023-02-18T16:00:20;98634.59;;;17.23;46.79
13235;BME280;6683;48.506;9.050;2023-02-18T16:03:28;98637.69;;;17.20;46.72
13235;BME280;6683;48.506;9.050;2023-02-18T16:06:37;98640.16;;;17.15;46.72
13235;BME280;6683;48.506;9.050;2023-02-18T16:09:41;98644.91;;;17.13;46.67
13235;BME280;6683;48.506;9.050;2023-02-18T16:12:48;98628.75;;;17.08;46.49
13235;BME280;6683;48.506;9.050;2023-02-18T16:15:51;98639.06;;;17.04;46.51
13235;BME280;6683;48.506;9.050;2023-02-18T16:18:54;98632.13;;;16.97;46.50
13235;BME280;6683;48.506;9.050;2023-02-18T16:21:57;98629.50;;;16.90;46.81
13235;BME280;6683;48.506;9.050;2023-02-18T16:25:16;98628.94;;;16.82;46.70
13235;BME280;6683;48.506;9.050;2023-02-18T16:28:24;98630.00;;;16.74;46.60
13235;BME280;6683;48.506;9.050;2023-02-18T16:31:27;98628.63;;;16.65;46.82
13235;BME280;6683;48.506;9.050;2023-02-18T16:34:30;98639.31;;;16.58;46.92
13235;BME280;6683;48.506;9.050;2023-02-18T16:37:32;98643.44;;;16.54;47.27
13235;BME280;6683;48.506;9.050;2023-02-18T16:40:42;98653.09;;;16.49;47.08
13235;BME280;6683;48.506;9.050;2023-02-18T16:43:44;98641.44;;;16.43;47.18
13235;BME280;6683;48.506;9.050;2023-02-18T16:46:47;98650.91;;;16.39;47.16
13235;BME280;6683;48.506;9.050;2023-02-18T16:49:50;98646.41;;;16.33;47.29
13235;BME280;6683;48.506;9.050;2023-02-18T16:52:53;98631.25;;;16.27;47.33
13235;BME280;6683;48.506;9.050;2023-02-18T16:55:56;98638.25;;;16.22;47.51